Time;durP1;ratioP1;P1;durP2;ratioP2;P2;SDS_P1;SDS_P2;PMS_P1;PMS_P2;Temp;Humidity;BMP_temperature;BMP_pressure;BME280_temperature;BME280_humidity;BME280_pressure;Samples;Min_cycle;Max_cycle;Signal;HPM_P1;HPM_P2
2022/08/17 00:00:59;;;;;;;0.83;0.50;;;;;;;35.78;21.38;100678.91;4994256;28;20051;-79
2022/08/17 00:03:29;;;;;;;1.58;0.50;;;;;;;35.74;21.23;100663.13;4991431;28;20106;-74
2022/08/17 00:06:01;;;;;;;0.98;0.40;;;;;;;35.74;21.68;100663.13;4992627;28;20064;-74
2022/08/17 00:08:31;;;;;;;2.92;0.60;;;;;;;35.76;21.79;100667.41;4985208;28;20038;-74
2022/08/17 00:11:00;;;;;;;3.20;0.55;;;;;;;35.79;20.36;100660.91;4993147;28;20137;-80
2022/08/17 00:13:32;;;;;;;2.05;0.40;;;;;;;35.83;22.07;100657.03;4991511;28;20054;-82
2022/08/17 00:16:05;;;;;;;2.72;0.68;;;;;;;35.82;20.84;100660.66;4987039;28;20054;-77
2022/08/17 00:18:34;;;;;;;4.55;0.55;;;;;;;35.82;21.16;100663.38;4986530;28;20556;-78
2022/08/17 00:21:05;;;;;;;3.13;0.40;;;;;;;35.83;21.00;100657.88;4986744;28;20115;-83
2022/08/17 00:23:34;;;;;;;4.18;0.57;;;;;;;35.83;19.60;100654.31;4989259;28;20043;-85
2022/08/17 00:26:03;;;;;;;2.47;0.50;;;;;;;35.81;18.85;100658.97;4988372;28;21344;-77
2022/08/17 00:28:31;;;;;;;2.08;0.60;;;;;;;35.79;19.83;100666.31;4987348;28;20140;-78
2022/08/17 00:31:01;;;;;;;0.52;0.40;;;;;;;35.75;20.73;100654.06;4990199;28;20516;-77
2022/08/17 00:33:32;;;;;;;2.35;0.40;;;;;;;35.74;20.00;100663.13;4988392;28;20039;-78
2022/08/17 00:36:02;;;;;;;2.70;0.45;;;;;;;35.75;19.10;100654.06;4991149;28;20104;-81
2022/08/17 00:38:31;;;;;;;2.40;0.85;;;;;;;35.77;18.82;100657.50;4984425;28;21314;-79
2022/08/17 00:41:04;;;;;;;2.53;0.40;;;;;;;35.74;18.19;100652.34;4990359;28;20050;-78
2022/08/17 00:43:35;;;;;;;0.52;0.32;;;;;;;35.68;19.12;100650.13;4988387;28;20119;-78
2022/08/17 00:46:08;;;;;;;1.23;0.52;;;;;;;35.64;18.55;100653.06;4995999;28;20101;-79
2022/08/17 00:48:37;;;;;;;2.10;0.40;;;;;;;35.63;18.21;100651.34;4988721;28;20113;-81
2022/08/17 00:51:16;;;;;;;1.05;0.40;;;;;;;35.57;18.69;100646.41;4991932;28;20500;-76
2022/08/17 00:53:50;;;;;;;1.48;0.57;;;;;;;35.57;20.47;100656.31;4988257;28;20050;-77
2022/08/17 00:56:24;;;;;;;0.40;0.30;;;;;;;35.53;19.75;100650.31;4987766;28;20100;-76
2022/08/17 00:58:55;;;;;;;1.60;0.40;;;;;;;35.49;19.81;100654.22;4985590;28;20105;-77
2022/08/17 01:01:26;;;;;;;0.30;0.30;;;;;;;35.44;19.55;100649.19;4992072;28;20054;-78
2022/08/17 01:03:55;;;;;;;1.85;0.45;;;;;;;35.38;19.65;100651.50;4986787;28;20050;-82
2022/08/17 01:06:25;;;;;;;0.20;0.20;;;;;;;35.28;18.64;100653.16;4988690;28;20054;-78
2022/08/17 01:08:56;;;;;;;0.85;0.60;;;;;;;35.25;19.67;100651.56;4990680;28;20058;-78
2022/08/17 01:11:25;;;;;;;1.73;0.38;;;;;;;35.18;20.08;100645.78;4991141;28;20054;-77
2022/08/17 01:13:54;;;;;;;0.30;0.25;;;;;;;35.05;18.34;100645.00;4985150;28;20201;-76
2022/08/17 01:16:27;;;;;;;1.45;0.40;;;;;;;34.92;19.62;100646.88;4987508;28;20117;-75
2022/08/17 01:18:59;;;;;;;0.30;0.30;;;;;;;34.89;20.66;100644.41;4987035;28;20565;-76
2022/08/17 01:21:37;;;;;;;0.98;0.50;;;;;;;34.81;19.86;100637.78;4986050;28;20105;-77
2022/08/17 01:24:08;;;;;;;2.05;0.47;;;;;;;34.77;20.20;100632.72;4986095;28;20201;-77
2022/08/17 01:26:38;;;;;;;3.65;0.50;;;;;;;34.78;20.35;100634.47;4990684;28;20071;-78
2022/08/17 01:29:07;;;;;;;1.20;0.60;;;;;;;34.74;20.88;100631.13;4989337;28;20057;-80
2022/08/17 01:31:40;;;;;;;1.08;0.35;;;;;;;34.70;20.04;100632.31;4988803;28;20644;-79
2022/08/17 01:34:10;;;;;;;0.52;0.50;;;;;;;34.58;20.46;100631.38;4981802;28;20134;-78
2022/08/17 01:36:40;;;;;;;0.57;0.43;;;;;;;34.51;20.70;100631.94;4985327;28;20058;-80
2022/08/17 01:39:28;;;;;;;0.30;0.30;;;;;;;34.46;21.50;100631.44;4985342;28;20321;-77
2022/08/17 01:42:04;;;;;;;2.72;0.50;;;;;;;34.37;21.62;100623.06;4989130;28;20055;-76
2022/08/17 01:44:33;;;;;;;1.48;0.47;;;;;;;34.31;21.43;100625.34;4986395;28;20420;-77
2022/08/17 01:47:02;;;;;;;0.30;0.30;;;;;;;34.23;21.42;100623.22;4988555;28;20046;-77
2022/08/17 01:49:30;;;;;;;2.08;0.40;;;;;;;34.20;23.31;100624.28;4987631;28;20103;-76
2022/08/17 01:52:05;;;;;;;1.35;0.40;;;;;;;34.13;23.15;100617.66;4990445;28;20974;-83
2022/08/17 01:54:36;;;;;;;0.68;0.60;;;;;;;34.03;22.56;100615.69;4990605;28;20446;-76
2022/08/17 01:57:07;;;;;;;0.73;0.45;;;;;;;33.96;22.86;100624.16;4981045;28;20047;-79
2022/08/17 01:59:35;;;;;;;1.00;0.40;;;;;;;33.88;22.63;100625.69;4993662;28;20048;-81
2022/08/17 02:02:06;;;;;;;1.73;0.60;;;;;;;33.71;21.26;100619.66;4987468;28;20047;-77
2022/08/17 02:04:35;;;;;;;2.35;0.50;;;;;;;33.65;23.85;100624.59;4983146;28;20056;-77
2022/08/17 02:07:04;;;;;;;0.35;0.35;;;;;;;33.57;22.77;100619.75;4987438;28;20201;-74
2022/08/17 02:09:34;;;;;;;0.47;0.40;;;;;;;33.51;22.50;100623.72;4981006;28;20108;-75
2022/08/17 02:12:03;;;;;;;1.55;0.40;;;;;;;33.45;23.71;100616.09;4980245;28;20109;-74
2022/08/17 02:14:32;;;;;;;0.68;0.40;;;;;;;33.29;23.73;100612.75;4992621;28;20057;-75
2022/08/17 02:17:00;;;;;;;1.58;0.30;;;;;;;33.21;23.31;100621.28;4977471;28;20054;-78
2022/08/17 02:19:29;;;;;;;0.95;0.40;;;;;;;33.15;24.22;100619.03;4981241;28;20050;-75
2022/08/17 02:21:57;;;;;;;0.63;0.40;;;;;;;33.07;22.58;100624.91;4986954;28;20519;-74
2022/08/17 02:24:29;;;;;;;5.05;0.65;;;;;;;32.91;25.08;100614.31;4989992;28;20519;-78
2022/08/17 02:27:00;;;;;;;1.20;0.40;;;;;;;32.76;25.09;100613.53;4987442;28;20042;-76
2022/08/17 02:29:28;;;;;;;2.83;0.40;;;;;;;32.67;26.09;100616.81;4987734;28;20104;-77
2022/08/17 02:31:57;;;;;;;1.45;0.35;;;;;;;32.59;24.19;100611.06;4982798;28;20692;-81
2022/08/17 02:34:26;;;;;;;1.25;0.50;;;;;;;32.56;26.86;100619.31;4996864;28;20574;-78
2022/08/17 02:36:54;;;;;;;0.95;0.50;;;;;;;32.47;25.57;100619.88;4984603;28;20148;-77
2022/08/17 02:39:23;;;;;;;2.25;0.40;;;;;;;32.40;24.89;100621.25;4986818;28;20069;-77
2022/08/17 02:42:00;;;;;;;0.65;0.43;;;;;;;32.27;24.77;100613.97;4984466;28;20054;-80
2022/08/17 02:44:30;;;;;;;1.00;0.57;;;;;;;32.18;24.56;100622.59;4986798;28;20054;-79
2022/08/17 02:46:59;;;;;;;3.58;0.60;;;;;;;32.13;24.65;100617.53;4981061;28;20050;-77
2022/08/17 02:49:27;;;;;;;1.05;0.50;;;;;;;32.04;25.31;100611.91;4986205;28;21268;-75
2022/08/17 02:51:58;;;;;;;0.82;0.52;;;;;;;32.01;26.77;100620.13;4983244;28;20058;-79
2022/08/17 02:54:26;;;;;;;3.80;0.70;;;;;;;31.89;26.01;100621.72;4982700;28;20527;-76
2022/08/17 02:56:55;;;;;;;1.20;0.57;;;;;;;31.80;26.33;100620.47;4983661;28;20054;-79
2022/08/17 02:59:24;;;;;;;0.90;0.55;;;;;;;31.67;26.38;100620.34;4983241;28;20523;-78
2022/08/17 03:01:54;;;;;;;2.45;0.50;;;;;;;31.54;28.85;100623.84;4981386;28;20412;-76
2022/08/17 03:04:23;;;;;;;1.17;0.60;;;;;;;31.33;28.31;100621.47;4989911;28;20050;-77
2022/08/17 03:06:51;;;;;;;1.65;0.40;;;;;;;31.16;27.93;100614.47;4985993;28;20049;-78
2022/08/17 03:09:20;;;;;;;1.08;0.50;;;;;;;31.10;27.95;100625.53;4984245;28;20054;-82
2022/08/17 03:11:49;;;;;;;2.30;0.55;;;;;;;30.98;29.04;100628.91;4976150;28;20449;-78
2022/08/17 03:14:18;;;;;;;1.00;0.50;;;;;;;30.85;29.30;100626.94;4963161;28;20062;-78
2022/08/17 03:16:47;;;;;;;0.95;0.50;;;;;;;30.73;29.45;100632.09;4967154;28;20054;-77
2022/08/17 03:19:17;;;;;;;0.85;0.45;;;;;;;30.61;29.27;100631.84;4965736;28;20047;-79
2022/08/17 03:21:45;;;;;;;1.45;0.57;;;;;;;30.50;29.07;100636.06;4969737;28;20051;-79
2022/08/17 03:24:14;;;;;;;2.15;0.50;;;;;;;30.37;29.85;100635.88;4963407;28;20055;-78
2022/08/17 03:26:42;;;;;;;2.63;0.60;;;;;;;30.21;30.80;100634.00;4973233;28;20046;-86
2022/08/17 03:29:17;;;;;;;0.85;0.52;;;;;;;30.07;29.48;100633.88;4968700;28;20496;-83
2022/08/17 03:31:46;;;;;;;0.55;0.45;;;;;;;29.94;28.99;100632.81;4971585;28;20105;-81
2022/08/17 03:34:17;;;;;;;1.15;0.70;;;;;;;29.85;29.07;100640.38;4968446;28;20054;-75
2022/08/17 03:36:46;;;;;;;0.95;0.50;;;;;;;29.75;28.62;100641.78;4971154;28;20468;-81
2022/08/17 03:39:14;;;;;;;1.95;0.50;;;;;;;29.68;29.30;100643.06;4984465;28;20575;-82
2022/08/17 03:41:43;;;;;;;2.15;0.70;;;;;;;29.61;29.46;100641.63;4977592;28;20083;-79
2022/08/17 03:44:11;;;;;;;1.30;0.70;;;;;;;29.51;29.34;100640.41;4966937;28;20489;-79
2022/08/17 03:57:54;;;;;;;1.35;0.68;;;;;;;29.12;30.21;100649.47;4972938;28;20420;-77
2022/08/17 04:00:23;;;;;;;2.05;0.60;;;;;;;29.03;30.59;100656.91;4979815;28;20054;-77
2022/08/17 04:02:52;;;;;;;1.15;0.65;;;;;;;28.96;30.59;100671.47;4978232;28;20098;-78
2022/08/17 04:05:22;;;;;;;2.20;0.80;;;;;;;28.88;31.56;100673.63;4985867;28;20488;-77
2022/08/17 04:07:51;;;;;;;1.77;0.65;;;;;;;28.76;31.45;100671.56;4968762;28;20058;-77
2022/08/17 04:10:20;;;;;;;1.08;0.68;;;;;;;28.71;32.17;100681.59;4979559;28;20054;-78
2022/08/17 04:12:51;;;;;;;1.40;0.90;;;;;;;28.62;32.47;100672.22;4987308;28;21226;-77
2022/08/17 04:15:21;;;;;;;1.42;0.70;;;;;;;28.51;33.69;100680.72;5001107;28;20056;-85
2022/08/17 04:17:49;;;;;;;4.13;1.05;;;;;;;28.33;34.25;100676.19;4988589;28;20081;-80
2022/08/17 04:20:24;;;;;;;0.73;0.73;;;;;;;28.23;35.18;100681.09;4982929;28;20058;-81
2022/08/17 04:23:01;;;;;;;2.55;0.70;;;;;;;28.10;35.52;100680.75;4974149;28;20058;-79
2022/08/17 04:25:35;;;;;;;2.17;0.73;;;;;;;28.05;34.75;100685.44;4983446;28;20079;-79
2022/08/17 04:28:04;;;;;;;1.15;0.60;;;;;;;27.97;35.14;100680.47;4978611;28;20058;-77
2022/08/17 04:30:35;;;;;;;0.90;0.60;;;;;;;27.88;33.62;100685.31;4982633;28;20157;-80
2022/08/17 04:33:07;;;;;;;2.03;0.60;;;;;;;27.78;33.49;100688.31;4981426;28;20058;-79
2022/08/17 04:35:40;;;;;;;2.25;0.80;;;;;;;27.69;33.16;100685.19;4986933;28;20046;-81
2022/08/17 04:38:11;;;;;;;1.77;0.80;;;;;;;27.60;32.70;100689.09;4983533;28;20050;-80
2022/08/17 04:43:27;;;;;;;5.05;1.00;;;;;;;27.36;34.54;100686.56;4981415;28;20085;-79
2022/08/17 04:45:58;;;;;;;3.17;1.25;;;;;;;27.26;35.62;100681.69;4985875;28;20474;-78
2022/08/17 04:48:28;;;;;;;2.90;1.20;;;;;;;27.18;34.92;100684.63;4985911;28;20057;-80
2022/08/17 04:51:00;;;;;;;2.03;0.80;;;;;;;27.06;36.39;100690.44;4993183;28;20043;-83
2022/08/17 04:53:29;;;;;;;1.52;0.70;;;;;;;26.92;38.56;100683.91;4996209;28;20218;-79
2022/08/17 04:55:58;;;;;;;5.57;0.98;;;;;;;26.80;35.96;100684.38;4987731;28;20599;-81
2022/08/17 04:58:26;;;;;;;1.15;0.77;;;;;;;26.66;35.49;100684.03;4996891;28;20096;-86
2022/08/17 05:00:55;;;;;;;2.72;0.70;;;;;;;26.59;36.57;100682.53;4989268;28;20497;-78
2022/08/17 05:03:24;;;;;;;1.95;0.90;;;;;;;26.52;36.54;100690.69;4989898;28;21198;-74
2022/08/17 05:05:53;;;;;;;2.15;0.90;;;;;;;26.48;36.43;100699.72;4985802;28;20042;-85
2022/08/17 05:08:23;;;;;;;3.30;1.08;;;;;;;26.41;36.90;100692.91;4985570;28;20078;-80
2022/08/17 05:10:52;;;;;;;1.70;0.80;;;;;;;26.35;37.57;100693.13;4995923;28;20487;-78
2022/08/17 05:13:23;;;;;;;2.85;0.90;;;;;;;26.20;37.10;100689.25;4988016;28;20050;-79
2022/08/17 05:15:55;;;;;;;3.00;0.90;;;;;;;26.09;37.71;100692.31;4988313;28;20046;-78
2022/08/17 05:18:24;;;;;;;1.70;0.80;;;;;;;25.94;37.74;100692.84;4988235;28;20050;-76
2022/08/17 05:20:53;;;;;;;2.35;0.80;;;;;;;25.84;38.60;100692.28;4995812;28;20057;-77
2022/08/17 05:23:25;;;;;;;2.05;0.90;;;;;;;25.78;38.68;100689.81;4982709;28;20057;-76
2022/08/17 05:25:56;;;;;;;1.35;0.80;;;;;;;25.75;39.10;100694.34;4977696;28;20042;-76
2022/08/17 05:28:27;;;;;;;2.53;0.90;;;;;;;25.71;38.33;100699.78;4985103;28;20050;-76
2022/08/17 05:31:00;;;;;;;2.70;0.80;;;;;;;25.66;38.99;100692.91;4983153;28;20080;-76
2022/08/17 05:33:30;;;;;;;2.95;0.80;;;;;;;25.58;38.71;100695.81;4986338;28;20054;-77
2022/08/17 05:36:00;;;;;;;1.50;0.70;;;;;;;25.49;40.08;100694.34;4984439;28;20142;-76
2022/08/17 05:38:31;;;;;;;1.67;0.70;;;;;;;25.41;40.71;100695.53;4984950;28;20042;-78
2022/08/17 05:41:06;;;;;;;4.50;1.00;;;;;;;25.35;40.89;100693.06;4985508;28;20137;-76
2022/08/17 05:43:37;;;;;;;1.42;0.70;;;;;;;25.29;41.59;100697.66;4982082;28;20054;-80
2022/08/17 05:46:19;;;;;;;2.40;1.00;;;;;;;25.23;41.95;100687.25;4985454;28;20055;-78
2022/08/17 05:48:50;;;;;;;4.25;1.10;;;;;;;25.15;42.71;100681.31;4984941;28;20042;-77
2022/08/17 05:51:42;;;;;;;1.40;1.00;;;;;;;25.14;43.20;100684.00;4987017;28;20071;-77
2022/08/17 05:54:33;;;;;;;3.08;1.02;;;;;;;25.11;43.93;100681.47;4986229;28;20401;-78
2022/08/17 05:57:18;;;;;;;2.42;1.20;;;;;;;25.07;43.58;100676.25;4988444;28;20112;-77
2022/08/17 05:59:55;;;;;;;1.73;1.05;;;;;;;25.03;44.16;100679.03;4996422;28;20455;-78
2022/08/17 06:02:36;;;;;;;4.20;1.02;;;;;;;24.99;44.20;100686.22;4987762;28;20093;-77
2022/08/17 06:05:18;;;;;;;3.58;1.13;;;;;;;24.92;45.53;100683.81;4984316;28;20116;-78
2022/08/17 06:07:54;;;;;;;1.87;1.20;;;;;;;24.86;45.23;100692.81;4984027;28;20046;-78
2022/08/17 06:10:33;;;;;;;2.15;1.15;;;;;;;24.81;46.10;100698.25;4984279;28;20100;-74
2022/08/17 06:13:12;;;;;;;2.35;1.17;;;;;;;24.81;45.51;100698.25;4971391;28;20051;-78
2022/08/17 06:15:55;;;;;;;1.70;1.08;;;;;;;24.80;45.80;100698.28;4977051;28;20046;-78
2022/08/17 06:18:29;;;;;;;3.35;1.10;;;;;;;24.76;45.69;100700.16;4966035;28;20055;-78
2022/08/17 06:21:00;;;;;;;2.72;1.02;;;;;;;24.75;46.45;100701.06;4970798;28;20054;-79
2022/08/17 06:23:35;;;;;;;3.03;1.17;;;;;;;24.72;46.22;100697.66;4965884;28;20144;-78
2022/08/17 06:26:13;;;;;;;2.08;1.08;;;;;;;24.69;46.39;100703.88;4973127;28;20169;-83
2022/08/17 06:28:50;;;;;;;4.88;1.20;;;;;;;24.65;47.04;100703.13;4956791;28;20054;-78
2022/08/17 06:31:29;;;;;;;3.42;1.15;;;;;;;24.62;47.04;100702.34;4962056;28;20043;-79
2022/08/17 06:33:59;;;;;;;2.70;1.13;;;;;;;24.55;47.42;100691.06;4969536;28;20505;-76
2022/08/17 06:36:48;;;;;;;4.03;1.48;;;;;;;24.55;47.46;100706.09;4967808;28;20489;-77
2022/08/17 06:39:32;;;;;;;2.80;1.20;;;;;;;24.54;47.98;100699.06;4968903;28;20134;-78
2022/08/17 06:42:16;;;;;;;1.83;1.15;;;;;;;24.54;47.16;100699.94;4970450;28;20050;-79
2022/08/17 06:44:51;;;;;;;1.20;0.90;;;;;;;24.49;47.20;100698.31;4970154;28;20046;-80
2022/08/17 06:47:26;;;;;;;2.65;1.20;;;;;;;24.49;47.74;100708.91;4969697;28;20047;-79
2022/08/17 06:50:03;;;;;;;3.10;1.02;;;;;;;24.47;47.77;100711.59;4966283;28;20054;-79
2022/08/17 06:52:38;;;;;;;2.83;1.15;;;;;;;24.43;48.73;100715.22;4965891;28;20661;-79
2022/08/17 06:55:13;;;;;;;2.75;0.95;;;;;;;24.39;48.45;100717.06;4967946;28;20520;-79
2022/08/17 06:57:48;;;;;;;3.75;1.20;;;;;;;24.35;48.41;100714.56;4969637;28;20038;-78
2022/08/17 07:00:21;;;;;;;1.92;1.10;;;;;;;24.32;48.60;100720.78;4976223;28;20057;-81
2022/08/17 07:02:55;;;;;;;3.35;1.40;;;;;;;24.29;48.92;100712.09;4971165;28;20058;-77
2022/08/17 07:05:37;;;;;;;3.25;1.15;;;;;;;24.27;48.48;100716.56;4974999;28;20491;-76
2022/08/17 07:08:13;;;;;;;1.90;0.93;;;;;;;24.23;49.24;100715.75;4967659;28;20575;-79
2022/08/17 07:10:46;;;;;;;1.67;1.20;;;;;;;24.22;49.32;100717.53;4963185;28;20456;-85
2022/08/17 07:13:31;;;;;;;5.85;1.35;;;;;;;24.21;50.06;100720.22;4987941;28;20120;-77
2022/08/17 07:16:15;;;;;;;3.53;1.10;;;;;;;24.20;49.29;100721.16;4982801;28;20089;-77
2022/08/17 07:18:44;;;;;;;4.75;1.35;;;;;;;24.17;49.30;100718.59;4984101;28;20042;-77
2022/08/17 07:21:22;;;;;;;3.70;1.20;;;;;;;24.11;49.78;100716.09;4982066;28;20039;-78
2022/08/17 07:24:01;;;;;;;3.13;1.98;;;;;;;24.11;49.61;100716.97;4990860;28;20041;-82
2022/08/17 07:26:30;;;;;;;1.90;1.08;;;;;;;24.07;49.78;100714.44;4980153;28;20050;-82
2022/08/17 07:29:01;;;;;;;4.35;1.30;;;;;;;24.03;49.88;100719.84;4985930;28;20050;-82
2022/08/17 07:31:32;;;;;;;3.13;1.42;;;;;;;24.00;50.08;100709.31;4992060;28;20061;-77
2022/08/17 07:34:05;;;;;;;2.58;1.10;;;;;;;23.98;50.21;100710.28;4990354;28;20054;-86
2022/08/17 07:36:34;;;;;;;2.40;1.25;;;;;;;23.96;50.37;100715.63;5000174;28;20077;-81
2022/08/17 07:39:05;;;;;;;1.52;1.08;;;;;;;23.94;50.48;100714.78;4986586;28;20493;-78
2022/08/17 07:41:39;;;;;;;1.40;1.13;;;;;;;23.93;50.88;100718.31;4989545;28;20042;-78
2022/08/17 07:44:17;;;;;;;1.08;0.90;;;;;;;23.91;50.52;100719.28;4989868;28;20049;-79
2022/08/17 07:49:39;;;;;;;3.10;1.38;;;;;;;23.85;50.40;100704.47;4989878;28;20056;-77
2022/08/17 07:52:11;;;;;;;1.63;1.05;;;;;;;23.81;50.33;100711.59;4986389;28;20109;-77
2022/08/17 07:54:42;;;;;;;3.08;1.50;;;;;;;23.80;50.68;100706.34;4980792;28;20105;-87
2022/08/17 07:57:29;;;;;;;2.58;1.10;;;;;;;23.81;51.23;100713.38;4985573;28;20586;-83
2022/08/17 08:00:27;;;;;;;2.55;1.30;;;;;;;23.78;51.25;100711.69;4986670;28;20492;-81
2022/08/17 08:03:15;;;;;;;2.50;1.17;;;;;;;23.75;51.02;100717.03;4946369;28;20112;-79
2022/08/17 08:05:56;;;;;;;3.28;1.00;;;;;;;23.72;50.98;100714.44;4985662;28;20105;-77
2022/08/17 08:08:30;;;;;;;3.63;1.20;;;;;;;23.72;50.76;100718.88;4985133;28;20054;-86
2022/08/17 08:11:05;;;;;;;2.28;1.08;;;;;;;23.69;51.07;100719.81;4988866;28;20133;-83
2022/08/17 08:13:34;;;;;;;2.05;1.20;;;;;;;23.67;51.27;100710.19;4988641;28;20145;-82
2022/08/17 08:16:27;;;;;;;2.75;1.10;;;;;;;23.65;50.93;100710.22;4987134;28;20967;-77
2022/08/17 08:18:58;;;;;;;2.22;1.20;;;;;;;23.62;50.62;100707.66;4985074;28;20129;-84
2022/08/17 08:21:37;;;;;;;1.83;1.00;;;;;;;23.62;51.01;100708.53;4987703;28;20053;-80
2022/08/17 08:24:37;;;;;;;2.38;1.20;;;;;;;23.63;50.57;100707.63;4985551;28;20050;-80
2022/08/17 08:27:16;;;;;;;1.25;0.82;;;;;;;23.60;50.63;100707.69;4987813;28;20046;-83
2022/08/17 08:29:53;;;;;;;1.80;1.02;;;;;;;23.59;51.26;100708.63;4992213;28;20049;-80
2022/08/17 08:32:41;;;;;;;1.15;0.90;;;;;;;23.55;51.26;100706.94;4988453;28;20041;-80
2022/08/17 08:35:14;;;;;;;1.58;1.13;;;;;;;23.52;50.82;100712.28;4988514;28;20046;-77
2022/08/17 08:37:51;;;;;;;2.47;0.90;;;;;;;23.48;50.40;100699.19;4987784;28;20046;-78
2022/08/17 08:40:43;;;;;;;1.73;1.00;;;;;;;23.48;50.58;100702.75;4990187;28;20559;-80
2022/08/17 08:43:29;;;;;;;2.77;1.17;;;;;;;23.46;50.54;100696.63;4988826;28;20515;-80
2022/08/17 08:46:05;;;;;;;2.15;1.10;;;;;;;23.44;50.39;100708.13;4986663;28;20049;-79
2022/08/17 08:49:01;;;;;;;1.48;1.05;;;;;;;23.41;50.37;100699.38;4984596;28;20496;-76
2022/08/17 08:51:45;;;;;;;3.40;1.17;;;;;;;23.38;50.81;100693.28;4977215;28;20142;-82
2022/08/17 08:54:25;;;;;;;1.63;0.95;;;;;;;23.35;50.49;100703.94;4987979;28;20093;-78
2022/08/17 08:56:58;;;;;;;2.08;1.10;;;;;;;23.34;50.97;100699.53;4985665;28;20077;-76
2022/08/17 08:59:33;;;;;;;3.55;1.00;;;;;;;23.34;51.42;100696.91;4991605;28;20042;-77
2022/08/17 09:02:14;;;;;;;2.88;1.17;;;;;;;23.31;50.96;100689.06;4981917;28;20097;-76
2022/08/17 09:05:02;;;;;;;2.38;0.80;;;;;;;23.25;50.60;100687.47;4988365;28;20050;-76
2022/08/17 09:07:40;;;;;;;1.13;1.00;;;;;;;23.19;51.11;100683.19;4980073;28;20420;-77
2022/08/17 09:10:25;;;;;;;2.30;1.02;;;;;;;23.15;51.59;100675.38;4983538;28;20043;-77
2022/08/17 09:13:06;;;;;;;1.67;0.98;;;;;;;23.07;51.87;100680.84;4993930;28;20128;-86
2022/08/17 09:15:40;;;;;;;3.10;1.00;;;;;;;23.03;52.15;100679.16;4977867;28;20437;-82
2022/08/17 09:18:15;;;;;;;3.20;1.00;;;;;;;23.00;51.18;100682.75;4982841;28;20060;-78
2022/08/17 09:20:49;;;;;;;2.25;1.00;;;;;;;22.99;50.68;100681.00;4985321;28;20039;-78
2022/08/17 09:23:31;;;;;;;2.83;1.05;;;;;;;23.01;51.98;100683.59;4983747;28;20042;-77
2022/08/17 09:26:06;;;;;;;1.40;0.80;;;;;;;22.99;51.44;100680.13;4991932;28;20104;-77
2022/08/17 09:28:37;;;;;;;1.13;1.00;;;;;;;22.95;51.35;100678.44;4977499;28;20050;-77
2022/08/17 09:31:10;;;;;;;1.75;0.93;;;;;;;22.88;51.64;100668.91;4983505;28;20058;-76
2022/08/17 09:33:44;;;;;;;1.38;1.00;;;;;;;22.89;51.85;100678.59;4986828;28;20058;-79
2022/08/17 09:36:20;;;;;;;2.38;1.05;;;;;;;22.89;51.90;100673.31;4984873;28;20050;-78
2022/08/17 09:38:58;;;;;;;1.83;1.20;;;;;;;22.85;51.18;100676.91;4985829;28;20112;-85
2022/08/17 09:41:34;;;;;;;2.50;1.10;;;;;;;22.82;53.62;100684.91;4987671;28;20554;-77
2022/08/17 09:44:19;;;;;;;2.65;1.00;;;;;;;22.78;52.04;100679.69;4985820;28;20512;-75
2022/08/17 09:46:54;;;;;;;2.42;0.98;;;;;;;22.76;51.71;100684.13;4983951;28;20101;-78
2022/08/17 09:49:31;;;;;;;1.30;1.10;;;;;;;22.73;50.79;100694.75;4985239;28;20046;-78
2022/08/17 09:52:17;;;;;;;3.83;1.30;;;;;;;22.68;50.95;100691.34;4989398;28;20538;-81
2022/08/17 09:54:46;;;;;;;1.40;1.02;;;;;;;22.66;50.83;100698.41;4988623;28;20571;-78
2022/08/17 09:57:28;;;;;;;2.35;1.00;;;;;;;22.62;50.61;100696.75;4986420;28;20042;-78
2022/08/17 10:00:14;;;;;;;1.65;1.00;;;;;;;22.57;51.09;100704.75;4985822;28;20047;-77
2022/08/17 10:03:07;;;;;;;2.95;1.17;;;;;;;22.57;50.72;100714.44;4988691;28;20484;-75
2022/08/17 10:05:47;;;;;;;1.50;0.90;;;;;;;22.52;50.79;100722.44;5003667;28;20100;-85
2022/08/17 10:08:26;;;;;;;1.15;0.90;;;;;;;22.50;51.30;100718.97;4988949;28;20047;-78
2022/08/17 10:12:14;;;;;;;1.35;0.95;;;;;;;22.47;51.13;100733.97;4987477;28;20047;-80
2022/08/17 10:14:30;;;;;;;2.45;1.38;;;;;;;22.41;52.64;100728.84;4965140;28;20453;-80
2022/08/17 10:17:04;;;;;;;2.05;0.90;;;;;;;22.34;52.12;100720.19;4967088;28;20787;-77
2022/08/17 10:19:38;;;;;;;2.67;0.90;;;;;;;22.32;52.61;100720.19;4965655;28;20051;-77
2022/08/17 10:27:55;;;;;;;1.70;0.90;;;;;;;22.30;53.72;100706.19;4965867;28;20062;-75
2022/08/17 10:30:27;;;;;;;1.20;1.08;;;;;;;22.32;53.78;100707.03;4964067;28;20051;-76
2022/08/17 10:32:59;;;;;;;2.63;0.93;;;;;;;22.31;53.90;100707.94;4964005;28;20084;-78
2022/08/17 10:35:35;;;;;;;2.03;0.98;;;;;;;22.32;53.07;100714.94;4965769;28;20130;-77
2022/08/17 10:38:24;;;;;;;3.63;1.58;;;;;;;22.27;52.94;100715.94;4962033;28;20100;-77
2022/08/17 10:41:00;;;;;;;3.55;0.98;;;;;;;22.20;53.12;100712.50;4963634;28;20054;-75
2022/08/17 10:43:43;;;;;;;3.35;1.17;;;;;;;22.13;53.28;100703.00;4967244;28;20047;-77
2022/08/17 10:46:18;;;;;;;2.40;1.08;;;;;;;22.11;53.24;100704.78;4965538;28;20175;-77
2022/08/17 10:49:07;;;;;;;1.88;1.20;;;;;;;22.02;56.49;100708.44;4965606;28;20102;-79
2022/08/17 10:51:40;;;;;;;1.40;1.00;;;;;;;21.87;55.12;100722.75;4966641;28;20046;-85
2022/08/17 10:54:47;;;;;;;3.25;1.00;;;;;;;21.74;54.85;100722.13;4964474;28;20520;-76
2022/08/17 10:57:45;;;;;;;1.40;1.10;;;;;;;21.72;55.48;100729.16;4967574;28;20046;-86
2022/08/17 11:01:07;;;;;;;2.70;1.10;;;;;;;21.64;55.70;100738.09;4963391;28;20054;-77
2022/08/17 11:03:36;;;;;;;3.43;1.20;;;;;;;21.58;56.02;100718.00;4967406;28;20055;-78
2022/08/17 11:06:20;;;;;;;1.55;1.05;;;;;;;21.62;56.04;100731.97;4965035;28;20497;-78
2022/08/17 11:09:19;;;;;;;1.70;1.02;;;;;;;21.62;56.29;100737.25;4970430;28;20086;-77
2022/08/17 11:12:05;;;;;;;2.55;0.88;;;;;;;21.60;56.40;100733.75;4969517;28;20060;-75
2022/08/17 11:14:49;;;;;;;2.42;1.10;;;;;;;21.54;56.60;100740.00;4988768;28;20046;-78
2022/08/17 11:17:37;;;;;;;2.75;1.10;;;;;;;21.48;56.01;100738.31;4988455;28;20412;-76
2022/08/17 11:20:37;;;;;;;5.07;1.20;;;;;;;21.48;56.79;100737.47;4988959;28;20077;-79
2022/08/17 11:23:32;;;;;;;3.10;1.02;;;;;;;21.46;56.30;100747.16;4983965;28;20126;-79
2022/08/17 11:26:07;;;;;;;1.80;1.17;;;;;;;21.41;56.60;100749.84;4985450;28;20058;-84
2022/08/17 11:28:47;;;;;;;2.90;1.10;;;;;;;21.38;56.92;100749.88;4983387;28;20060;-78
2022/08/17 11:31:31;;;;;;;3.65;1.00;;;;;;;21.34;57.27;100754.28;4991062;28;20046;-76
2022/08/17 11:34:04;;;;;;;1.20;1.00;;;;;;;21.27;57.39;100767.59;4983925;28;20050;-78
2022/08/17 11:37:00;;;;;;;2.67;1.00;;;;;;;21.18;57.46;100757.19;4984883;28;20500;-77
2022/08/17 11:40:04;;;;;;;2.75;1.35;;;;;;;21.17;57.43;100753.69;4980215;28;20054;-78
2022/08/17 11:42:47;;;;;;;2.20;1.00;;;;;;;21.13;57.78;100759.88;4951545;28;20046;-77
2022/08/17 11:45:36;;;;;;;3.58;1.30;;;;;;;21.10;57.29;100763.44;4983777;28;20050;-78
2022/08/17 11:51:33;;;;;;;2.72;1.40;;;;;;;21.07;58.08;100762.59;4989126;28;20125;-78
2022/08/17 11:54:06;;;;;;;2.35;0.98;;;;;;;21.02;59.02;100749.50;4985050;28;20038;-79
2022/08/17 11:56:40;;;;;;;1.77;1.20;;;;;;;21.02;58.87;100746.88;4989087;28;20170;-78
2022/08/17 11:59:44;;;;;;;1.60;0.93;;;;;;;21.01;58.35;100744.28;4989249;28;20129;-78
2022/08/17 12:02:41;;;;;;;2.78;1.42;;;;;;;20.96;57.92;100751.34;4980515;28;20056;-77
2022/08/17 12:05:36;;;;;;;4.80;1.40;;;;;;;20.90;58.31;100747.03;4972609;28;20082;-77
2022/08/17 12:08:18;;;;;;;3.70;1.25;;;;;;;20.83;59.57;100755.91;4991501;28;20069;-78
2022/08/17 12:11:11;;;;;;;2.33;1.20;;;;;;;20.79;59.14;100748.94;4991596;28;20046;-77
2022/08/17 12:13:49;;;;;;;3.00;1.30;;;;;;;20.77;59.87;100746.31;4982524;28;20050;-77
2022/08/17 12:16:20;;;;;;;1.83;0.90;;;;;;;20.68;59.95;100731.56;4991316;28;20492;-77
2022/08/17 12:18:56;;;;;;;4.57;1.40;;;;;;;20.72;59.25;100745.50;4990625;28;20049;-76
2022/08/17 12:21:36;;;;;;;2.70;1.00;;;;;;;20.65;58.88;100733.34;4985049;28;20054;-80
2022/08/17 12:24:18;;;;;;;1.88;1.00;;;;;;;20.57;59.28;100728.19;4987449;28;20059;-77
2022/08/17 12:26:56;;;;;;;1.30;1.02;;;;;;;20.58;59.12;100732.53;4986452;28;20113;-78
2022/08/17 12:29:25;;;;;;;4.55;1.23;;;;;;;20.52;59.19;100732.56;4987602;28;20101;-76